sensor_id;sensor_type;location;lat;lon;timestamp;temperature;humidity
13115;DHT22;6623;52.120;8.660;2023-04-07T00:01:20;9.30;67.70
13115;DHT22;6623;52.120;8.660;2023-04-07T00:03:46;9.50;67.90
13115;DHT22;6623;52.120;8.660;2023-04-07T00:06:11;9.40;67.90
13115;DHT22;6623;52.120;8.660;2023-04-07T00:08:37;9.40;68.00
13115;DHT22;6623;52.120;8.660;2023-04-07T00:11:03;9.40;68.00
13115;DHT22;6623;52.120;8.660;2023-04-07T00:13:28;9.40;68.10
13115;DHT22;6623;52.120;8.660;2023-04-07T00:15:54;9.30;68.10
13115;DHT22;6623;52.120;8.660;2023-04-07T00:18:19;9.90;68.60
13115;DHT22;6623;52.120;8.660;2023-04-07T00:20:45;9.20;68.30
13115;DHT22;6623;52.120;8.660;2023-04-07T00:23:11;9.40;68.30
13115;DHT22;6623;52.120;8.660;2023-04-07T00:25:36;9.20;68.30
13115;DHT22;6623;52.120;8.660;2023-04-07T00:28:02;9.40;68.40
13115;DHT22;6623;52.120;8.660;2023-04-07T00:30:27;9.40;68.50
13115;DHT22;6623;52.120;8.660;2023-04-07T00:32:53;9.40;68.50
13115;DHT22;6623;52.120;8.660;2023-04-07T00:35:19;10.00;68.90
13115;DHT22;6623;52.120;8.660;2023-04-07T00:37:44;9.60;68.70
13115;DHT22;6623;52.120;8.660;2023-04-07T00:40:10;9.50;68.90
13115;DHT22;6623;52.120;8.660;2023-04-07T00:42:36;9.40;69.00
13115;DHT22;6623;52.120;8.660;2023-04-07T00:45:01;9.20;68.70
13115;DHT22;6623;52.120;8.660;2023-04-07T00:47:27;9.30;69.00
13115;DHT22;6623;52.120;8.660;2023-04-07T00:49:53;9.30;68.90
13115;DHT22;6623;52.120;8.660;2023-04-07T00:52:21;9.00;69.00
13115;DHT22;6623;52.120;8.660;2023-04-07T00:54:53;9.30;69.10
13115;DHT22;6623;52.120;8.660;2023-04-07T00:57:19;9.30;69.20
13115;DHT22;6623;52.120;8.660;2023-04-07T00:59:47;9.30;69.30
13115;DHT22;6623;52.120;8.660;2023-04-07T01:02:51;9.20;69.30
13115;DHT22;6623;52.120;8.660;2023-04-07T01:08:29;9.20;69.40
13115;DHT22;6623;52.120;8.660;2023-04-07T01:11:12;9.30;69.50
13115;DHT22;6623;52.120;8.660;2023-04-07T01:13:48;9.20;69.50
13115;DHT22;6623;52.120;8.660;2023-04-07T01:16:27;9.20;69.50
13115;DHT22;6623;52.120;8.660;2023-04-07T01:18:57;9.20;69.60
13115;DHT22;6623;52.120;8.660;2023-04-07T01:21:26;9.20;69.60
13115;DHT22;6623;52.120;8.660;2023-04-07T01:24:48;9.20;69.70
13115;DHT22;6623;52.120;8.660;2023-04-07T01:29:41;9.20;69.70
13115;DHT22;6623;52.120;8.660;2023-04-07T01:32:12;9.10;69.60
13115;DHT22;6623;52.120;8.660;2023-04-07T01:34:39;9.20;69.70
13115;DHT22;6623;52.120;8.660;2023-04-07T01:37:06;9.10;69.60
13115;DHT22;6623;52.120;8.660;2023-04-07T01:39:33;9.10;69.60
13115;DHT22;6623;52.120;8.660;2023-04-07T01:42:00;9.10;69.60
13115;DHT22;6623;52.120;8.660;2023-04-07T01:44:28;9.20;69.80
13115;DHT22;6623;52.120;8.660;2023-04-07T01:46:54;9.10;69.60
13115;DHT22;6623;52.120;8.660;2023-04-07T01:49:21;9.20;69.70
13115;DHT22;6623;52.120;8.660;2023-04-07T01:51:47;9.10;69.80
13115;DHT22;6623;52.120;8.660;2023-04-07T01:54:15;9.90;70.30
13115;DHT22;6623;52.120;8.660;2023-04-07T01:56:42;9.00;69.80
13115;DHT22;6623;52.120;8.660;2023-04-07T01:59:08;10.10;70.60
13115;DHT22;6623;52.120;8.660;2023-04-07T02:01:33;9.30;70.30
13115;DHT22;6623;52.120;8.660;2023-04-07T02:06:48;9.10;70.30
13115;DHT22;6623;52.120;8.660;2023-04-07T02:09:15;9.50;70.60
13115;DHT22;6623;52.120;8.660;2023-04-07T02:11:44;9.10;70.50
13115;DHT22;6623;52.120;8.660;2023-04-07T02:14:10;9.10;70.50
13115;DHT22;6623;52.120;8.660;2023-04-07T02:16:36;10.20;71.20
13115;DHT22;6623;52.120;8.660;2023-04-07T02:19:04;8.90;70.60
13115;DHT22;6623;52.120;8.660;2023-04-07T02:21:32;8.60;70.70
13115;DHT22;6623;52.120;8.660;2023-04-07T02:24:04;8.90;70.90
13115;DHT22;6623;52.120;8.660;2023-04-07T02:26:34;8.90;70.90
13115;DHT22;6623;52.120;8.660;2023-04-07T02:29:01;9.00;71.10
13115;DHT22;6623;52.120;8.660;2023-04-07T02:31:26;10.00;71.70
13115;DHT22;6623;52.120;8.660;2023-04-07T02:33:52;9.50;71.60
13115;DHT22;6623;52.120;8.660;2023-04-07T02:36:17;10.80;72.40
13115;DHT22;6623;52.120;8.660;2023-04-07T02:38:43;8.90;71.50
13115;DHT22;6623;52.120;8.660;2023-04-07T02:41:08;8.80;71.50
13115;DHT22;6623;52.120;8.660;2023-04-07T02:43:34;8.90;71.80
13115;DHT22;6623;52.120;8.660;2023-04-07T02:46:00;8.80;71.80
13115;DHT22;6623;52.120;8.660;2023-04-07T02:48:25;8.60;71.90
13115;DHT22;6623;52.120;8.660;2023-04-07T02:50:51;8.80;72.10
13115;DHT22;6623;52.120;8.660;2023-04-07T02:53:16;9.20;72.50
13115;DHT22;6623;52.120;8.660;2023-04-07T02:55:42;8.60;72.30
13115;DHT22;6623;52.120;8.660;2023-04-07T02:58:07;9.60;72.80
13115;DHT22;6623;52.120;8.660;2023-04-07T03:00:33;8.80;72.40
13115;DHT22;6623;52.120;8.660;2023-04-07T03:02:59;8.80;72.50
13115;DHT22;6623;52.120;8.660;2023-04-07T03:05:25;8.80;72.50
13115;DHT22;6623;52.120;8.660;2023-04-07T03:07:51;10.00;73.50
13115;DHT22;6623;52.120;8.660;2023-04-07T03:10:17;8.60;72.70
13115;DHT22;6623;52.120;8.660;2023-04-07T03:12:43;8.70;72.90
13115;DHT22;6623;52.120;8.660;2023-04-07T03:15:08;8.60;72.90
13115;DHT22;6623;52.120;8.660;2023-04-07T03:17:34;8.70;73.00
13115;DHT22;6623;52.120;8.660;2023-04-07T03:20:00;8.80;73.20
13115;DHT22;6623;52.120;8.660;2023-04-07T03:22:26;8.70;73.20
13115;DHT22;6623;52.120;8.660;2023-04-07T03:24:51;8.70;73.30
13115;DHT22;6623;52.120;8.660;2023-04-07T03:27:17;8.70;73.40
13115;DHT22;6623;52.120;8.660;2023-04-07T03:29:44;8.60;73.40
13115;DHT22;6623;52.120;8.660;2023-04-07T03:32:10;8.60;73.50
13115;DHT22;6623;52.120;8.660;2023-04-07T03:34:35;8.40;73.50
13115;DHT22;6623;52.120;8.660;2023-04-07T03:37:01;9.40;74.40
13115;DHT22;6623;52.120;8.660;2023-04-07T03:39:26;9.10;74.30
13115;DHT22;6623;52.120;8.660;2023-04-07T03:41:52;9.60;74.60
13115;DHT22;6623;52.120;8.660;2023-04-07T03:44:20;8.50;74.10
13115;DHT22;6623;52.120;8.660;2023-04-07T03:46:46;8.60;74.10
13115;DHT22;6623;52.120;8.660;2023-04-07T03:49:13;8.20;74.20
13115;DHT22;6623;52.120;8.660;2023-04-07T03:51:38;8.60;74.40
13115;DHT22;6623;52.120;8.660;2023-04-07T03:54:04;8.50;74.50
13115;DHT22;6623;52.120;8.660;2023-04-07T03:56:30;8.50;74.60
13115;DHT22;6623;52.120;8.660;2023-04-07T03:58:55;8.50;74.70
13115;DHT22;6623;52.120;8.660;2023-04-07T04:01:21;8.50;74.70
13115;DHT22;6623;52.120;8.660;2023-04-07T04:03:47;8.40;74.70
13115;DHT22;6623;52.120;8.660;2023-04-07T04:06:13;8.40;74.90
13115;DHT22;6623;52.120;8.660;2023-04-07T04:08:38;8.30;74.90
13115;DHT22;6623;52.120;8.660;2023-04-07T04:11:04;8.40;75.00
13115;DHT22;6623;52.120;8.660;2023-04-07T04:13:30;8.40;75.10
13115;DHT22;6623;52.120;8.660;2023-04-07T04:15:56;8.30;75.20
13115;DHT22;6623;52.120;8.660;2023-04-07T04:18:22;8.30;75.40
13115;DHT22;6623;52.120;8.660;2023-04-07T04:20:47;8.30;75.60
13115;DHT22;6623;52.120;8.660;2023-04-07T04:23:14;8.10;75.50
13115;DHT22;6623;52.120;8.660;2023-04-07T04:25:39;8.20;75.70
13115;DHT22;6623;52.120;8.660;2023-04-07T04:28:05;8.70;76.20
13115;DHT22;6623;52.120;8.660;2023-04-07T04:30:31;8.20;76.00
13115;DHT22;6623;52.120;8.660;2023-04-07T04:32:56;8.20;76.20
13115;DHT22;6623;52.120;8.660;2023-04-07T04:35:22;8.20;76.00
13115;DHT22;6623;52.120;8.660;2023-04-07T04:37:48;8.40;76.30
13115;DHT22;6623;52.120;8.660;2023-04-07T04:40:13;8.10;76.00
13115;DHT22;6623;52.120;8.660;2023-04-07T04:42:39;8.20;76.20
13115;DHT22;6623;52.120;8.660;2023-04-07T04:45:06;8.30;76.30
13115;DHT22;6623;52.120;8.660;2023-04-07T04:47:31;8.30;76.40
13115;DHT22;6623;52.120;8.660;2023-04-07T04:49:57;8.20;76.50
13115;DHT22;6623;52.120;8.660;2023-04-07T04:52:23;8.20;76.50
13115;DHT22;6623;52.120;8.660;2023-04-07T04:54:48;8.30;76.60
13115;DHT22;6623;52.120;8.660;2023-04-07T04:57:14;8.20;76.60
13115;DHT22;6623;52.120;8.660;2023-04-07T04:59:40;8.20;76.70
13115;DHT22;6623;52.120;8.660;2023-04-07T05:02:06;8.20;76.90
13115;DHT22;6623;52.120;8.660;2023-04-07T05:04:32;8.10;76.90
13115;DHT22;6623;52.120;8.660;2023-04-07T05:06:58;8.20;77.20
13115;DHT22;6623;52.120;8.660;2023-04-07T05:09:23;8.20;77.30
13115;DHT22;6623;52.120;8.660;2023-04-07T05:11:49;8.20;77.50
13115;DHT22;6623;52.120;8.660;2023-04-07T05:14:14;8.20;77.50
13115;DHT22;6623;52.120;8.660;2023-04-07T05:16:40;8.20;77.50
13115;DHT22;6623;52.120;8.660;2023-04-07T05:19:06;8.20;77.60
13115;DHT22;6623;52.120;8.660;2023-04-07T05:21:31;8.20;77.60
13115;DHT22;6623;52.120;8.660;2023-04-07T05:23:57;8.40;77.80
13115;DHT22;6623;52.120;8.660;2023-04-07T05:26:22;8.10;77.70
13115;DHT22;6623;52.120;8.660;2023-04-07T05:28:48;8.30;77.70
13115;DHT22;6623;52.120;8.660;2023-04-07T05:31:13;8.20;77.80
13115;DHT22;6623;52.120;8.660;2023-04-07T05:33:39;8.30;77.90
13115;DHT22;6623;52.120;8.660;2023-04-07T05:36:05;8.30;77.90
13115;DHT22;6623;52.120;8.660;2023-04-07T05:38:31;8.40;78.10
13115;DHT22;6623;52.120;8.660;2023-04-07T05:40:56;8.40;78.00
13115;DHT22;6623;52.120;8.660;2023-04-07T05:43:22;8.40;78.00
13115;DHT22;6623;52.120;8.660;2023-04-07T05:45:47;8.50;78.00
13115;DHT22;6623;52.120;8.660;2023-04-07T05:48:13;8.50;78.00
13115;DHT22;6623;52.120;8.660;2023-04-07T05:50:38;8.60;78.20
13115;DHT22;6623;52.120;8.660;2023-04-07T05:53:04;8.60;78.20
13115;DHT22;6623;52.120;8.660;2023-04-07T05:55:30;8.70;78.30
13115;DHT22;6623;52.120;8.660;2023-04-07T05:57:55;8.70;78.30
13115;DHT22;6623;52.120;8.660;2023-04-07T06:00:21;8.50;78.20
13115;DHT22;6623;52.120;8.660;2023-04-07T06:02:47;10.80;79.50
13115;DHT22;6623;52.120;8.660;2023-04-07T06:05:12;8.90;78.80
13115;DHT22;6623;52.120;8.660;2023-04-07T06:07:38;9.10;79.20
13115;DHT22;6623;52.120;8.660;2023-04-07T06:10:04;9.20;78.60
13115;DHT22;6623;52.120;8.660;2023-04-07T06:12:29;9.20;78.10
13115;DHT22;6623;52.120;8.660;2023-04-07T06:14:55;9.30;78.00
13115;DHT22;6623;52.120;8.660;2023-04-07T06:17:21;10.10;78.10
13115;DHT22;6623;52.120;8.660;2023-04-07T06:19:47;9.20;77.30
13115;DHT22;6623;52.120;8.660;2023-04-07T06:22:12;9.10;77.30
13115;DHT22;6623;52.120;8.660;2023-04-07T06:24:38;9.20;77.30
13115;DHT22;6623;52.120;8.660;2023-04-07T06:27:04;9.20;77.10
13115;DHT22;6623;52.120;8.660;2023-04-07T06:29:31;9.20;76.90
13115;DHT22;6623;52.120;8.660;2023-04-07T06:31:56;9.90;76.70
13115;DHT22;6623;52.120;8.660;2023-04-07T06:34:22;9.30;76.50
13115;DHT22;6623;52.120;8.660;2023-04-07T06:36:47;9.40;76.50
13115;DHT22;6623;52.120;8.660;2023-04-07T06:39:13;9.50;76.30
13115;DHT22;6623;52.120;8.660;2023-04-07T06:41:39;9.50;76.20
13115;DHT22;6623;52.120;8.660;2023-04-07T06:44:08;10.50;76.70
13115;DHT22;6623;52.120;8.660;2023-04-07T06:46:33;10.60;76.50
13115;DHT22;6623;52.120;8.660;2023-04-07T06:48:59;9.70;76.00
13115;DHT22;6623;52.120;8.660;2023-04-07T06:51:24;9.70;75.40
13115;DHT22;6623;52.120;8.660;2023-04-07T06:53:50;9.70;74.60
13115;DHT22;6623;52.120;8.660;2023-04-07T06:56:16;9.80;75.10
13115;DHT22;6623;52.120;8.660;2023-04-07T06:58:41;9.90;74.70
13115;DHT22;6623;52.120;8.660;2023-04-07T07:01:07;9.80;74.40
13115;DHT22;6623;52.120;8.660;2023-04-07T07:03:32;10.00;74.30
13115;DHT22;6623;52.120;8.660;2023-04-07T07:05:58;9.90;74.00
13115;DHT22;6623;52.120;8.660;2023-04-07T07:08:25;10.00;74.00
13115;DHT22;6623;52.120;8.660;2023-04-07T07:10:51;10.10;74.10
13115;DHT22;6623;52.120;8.660;2023-04-07T07:13:18;10.00;73.60
13115;DHT22;6623;52.120;8.660;2023-04-07T07:15:44;10.10;73.60
13115;DHT22;6623;52.120;8.660;2023-04-07T07:18:11;10.00;73.70
13115;DHT22;6623;52.120;8.660;2023-04-07T07:20:36;10.20;73.70
13115;DHT22;6623;52.120;8.660;2023-04-07T07:23:02;10.20;73.50
13115;DHT22;6623;52.120;8.660;2023-04-07T07:25:27;10.20;73.20
13115;DHT22;6623;52.120;8.660;2023-04-07T07:27:53;10.40;72.80
13115;DHT22;6623;52.120;8.660;2023-04-07T07:30:22;10.40;72.80
13115;DHT22;6623;52.120;8.660;2023-04-07T07:32:49;10.40;72.50
13115;DHT22;6623;52.120;8.660;2023-04-07T07:35:15;10.40;72.20
13115;DHT22;6623;52.120;8.660;2023-04-07T07:37:41;10.50;72.10
13115;DHT22;6623;52.120;8.660;2023-04-07T07:40:07;10.60;72.20
13115;DHT22;6623;52.120;8.660;2023-04-07T07:42:32;10.60;71.80
13115;DHT22;6623;52.120;8.660;2023-04-07T07:44:58;10.60;71.70
13115;DHT22;6623;52.120;8.660;2023-04-07T07:47:24;10.70;71.40
13115;DHT22;6623;52.120;8.660;2023-04-07T07:49:51;10.90;71.80
13115;DHT22;6623;52.120;8.660;2023-04-07T07:52:16;11.30;71.10
13115;DHT22;6623;52.120;8.660;2023-04-07T07:54:42;10.50;70.40
13115;DHT22;6623;52.120;8.660;2023-04-07T07:57:07;10.80;71.30
13115;DHT22;6623;52.120;8.660;2023-04-07T07:59:33;11.50;70.70
13115;DHT22;6623;52.120;8.660;2023-04-07T08:01:59;11.00;70.30
13115;DHT22;6623;52.120;8.660;2023-04-07T08:04:25;11.00;70.40
13115;DHT22;6623;52.120;8.660;2023-04-07T08:06:51;11.00;70.10
13115;DHT22;6623;52.120;8.660;2023-04-07T08:09:19;11.00;69.80
13115;DHT22;6623;52.120;8.660;2023-04-07T08:11:45;11.00;69.50
13115;DHT22;6623;52.120;8.660;2023-04-07T08:14:13;10.90;69.40
13115;DHT22;6623;52.120;8.660;2023-04-07T08:16:38;11.00;69.20
13115;DHT22;6623;52.120;8.660;2023-04-07T08:19:04;10.90;69.00
13115;DHT22;6623;52.120;8.660;2023-04-07T08:21:30;11.00;69.00
13115;DHT22;6623;52.120;8.660;2023-04-07T08:23:56;11.00;68.90
13115;DHT22;6623;52.120;8.660;2023-04-07T08:26:21;11.10;68.50
13115;DHT22;6623;52.120;8.660;2023-04-07T08:28:48;11.10;67.70
13115;DHT22;6623;52.120;8.660;2023-04-07T08:31:16;11.10;67.80
13115;DHT22;6623;52.120;8.660;2023-04-07T08:33:41;11.10;67.90
13115;DHT22;6623;52.120;8.660;2023-04-07T08:36:07;11.20;67.60
13115;DHT22;6623;52.120;8.660;2023-04-07T08:38:32;11.20;67.60
13115;DHT22;6623;52.120;8.660;2023-04-07T08:41:03;11.20;67.50
13115;DHT22;6623;52.120;8.660;2023-04-07T08:43:29;12.30;68.10
13115;DHT22;6623;52.120;8.660;2023-04-07T08:45:56;12.40;67.80
13115;DHT22;6623;52.120;8.660;2023-04-07T08:48:23;11.50;66.70
13115;DHT22;6623;52.120;8.660;2023-04-07T08:50:51;11.60;65.50
13115;DHT22;6623;52.120;8.660;2023-04-07T08:53:23;11.60;65.60
13115;DHT22;6623;52.120;8.660;2023-04-07T08:55:53;11.60;65.20
13115;DHT22;6623;52.120;8.660;2023-04-07T08:58:20;12.70;65.90
13115;DHT22;6623;52.120;8.660;2023-04-07T09:00:46;11.70;65.60
13115;DHT22;6623;52.120;8.660;2023-04-07T09:03:14;11.70;65.50
13115;DHT22;6623;52.120;8.660;2023-04-07T09:05:42;12.10;65.40
13115;DHT22;6623;52.120;8.660;2023-04-07T09:08:08;12.30;64.80
13115;DHT22;6623;52.120;8.660;2023-04-07T09:10:35;11.70;64.20
13115;DHT22;6623;52.120;8.660;2023-04-07T09:13:01;11.70;64.30
13115;DHT22;6623;52.120;8.660;2023-04-07T09:15:29;11.60;64.40
13115;DHT22;6623;52.120;8.660;2023-04-07T09:17:56;11.50;64.30
13115;DHT22;6623;52.120;8.660;2023-04-07T09:20:22;11.60;64.40
13115;DHT22;6623;52.120;8.660;2023-04-07T09:22:48;11.60;64.30
13115;DHT22;6623;52.120;8.660;2023-04-07T09:25:23;11.60;64.00
13115;DHT22;6623;52.120;8.660;2023-04-07T09:28:03;11.80;63.50
13115;DHT22;6623;52.120;8.660;2023-04-07T09:30:30;11.70;62.90
13115;DHT22;6623;52.120;8.660;2023-04-07T09:32:57;11.60;62.80
13115;DHT22;6623;52.120;8.660;2023-04-07T09:35:23;11.50;62.70
13115;DHT22;6623;52.120;8.660;2023-04-07T09:38:08;11.50;62.80
13115;DHT22;6623;52.120;8.660;2023-04-07T09:40:35;11.30;62.50
13115;DHT22;6623;52.120;8.660;2023-04-07T09:43:02;11.50;62.90
13115;DHT22;6623;52.120;8.660;2023-04-07T09:45:29;11.50;63.10
13115;DHT22;6623;52.120;8.660;2023-04-07T09:48:04;11.40;63.00
13115;DHT22;6623;52.120;8.660;2023-04-07T09:50:34;11.60;63.00
13115;DHT22;6623;52.120;8.660;2023-04-07T09:53:00;11.60;62.80
13115;DHT22;6623;52.120;8.660;2023-04-07T09:55:27;11.60;62.90
13115;DHT22;6623;52.120;8.660;2023-04-07T09:57:54;11.90;62.90
13115;DHT22;6623;52.120;8.660;2023-04-07T10:00:20;11.40;62.50
13115;DHT22;6623;52.120;8.660;2023-04-07T10:02:47;11.60;62.50
13115;DHT22;6623;52.120;8.660;2023-04-07T10:05:13;12.20;62.80
13115;DHT22;6623;52.120;8.660;2023-04-07T10:07:39;11.50;61.90
13115;DHT22;6623;52.120;8.660;2023-04-07T10:10:06;12.00;62.10
13115;DHT22;6623;52.120;8.660;2023-04-07T10:12:34;11.70;61.90
13115;DHT22;6623;52.120;8.660;2023-04-07T10:15:01;12.10;61.80
13115;DHT22;6623;52.120;8.660;2023-04-07T10:17:28;11.80;62.00
13115;DHT22;6623;52.120;8.660;2023-04-07T10:19:57;11.50;61.40
13115;DHT22;6623;52.120;8.660;2023-04-07T10:22:24;12.30;61.80
13115;DHT22;6623;52.120;8.660;2023-04-07T10:24:55;12.20;61.40
13115;DHT22;6623;52.120;8.660;2023-04-07T10:27:54;11.90;61.00
13115;DHT22;6623;52.120;8.660;2023-04-07T10:30:25;12.00;60.10
13115;DHT22;6623;52.120;8.660;2023-04-07T10:32:52;11.80;60.00
13115;DHT22;6623;52.120;8.660;2023-04-07T10:35:19;12.60;60.10
13115;DHT22;6623;52.120;8.660;2023-04-07T10:38:11;12.30;59.80
13115;DHT22;6623;52.120;8.660;2023-04-07T10:40:41;12.10;59.60
13115;DHT22;6623;52.120;8.660;2023-04-07T10:43:08;12.00;59.60
13115;DHT22;6623;52.120;8.660;2023-04-07T10:48:15;12.20;59.30
13115;DHT22;6623;52.120;8.660;2023-04-07T10:50:41;12.10;59.10
13115;DHT22;6623;52.120;8.660;2023-04-07T10:53:14;12.20;59.10
13115;DHT22;6623;52.120;8.660;2023-04-07T10:55:44;14.10;59.80
13115;DHT22;6623;52.120;8.660;2023-04-07T10:58:17;12.30;58.80
13115;DHT22;6623;52.120;8.660;2023-04-07T11:03:39;12.80;58.80
13115;DHT22;6623;52.120;8.660;2023-04-07T11:06:07;12.40;58.20
13115;DHT22;6623;52.120;8.660;2023-04-07T11:08:43;12.40;58.00
13115;DHT22;6623;52.120;8.660;2023-04-07T11:11:13;13.00;57.90
13115;DHT22;6623;52.120;8.660;2023-04-07T11:13:47;12.40;57.60
13115;DHT22;6623;52.120;8.660;2023-04-07T11:16:18;12.40;57.40
13115;DHT22;6623;52.120;8.660;2023-04-07T11:18:45;14.30;58.40
13115;DHT22;6623;52.120;8.660;2023-04-07T11:21:10;12.40;57.10
13115;DHT22;6623;52.120;8.660;2023-04-07T11:23:41;12.50;57.00
13115;DHT22;6623;52.120;8.660;2023-04-07T11:26:08;12.50;56.80
13115;DHT22;6623;52.120;8.660;2023-04-07T11:31:24;12.70;56.30
13115;DHT22;6623;52.120;8.660;2023-04-07T11:36:31;13.30;56.20
13115;DHT22;6623;52.120;8.660;2023-04-07T11:38:58;12.70;55.80
13115;DHT22;6623;52.120;8.660;2023-04-07T11:41:26;12.50;55.50
13115;DHT22;6623;52.120;8.660;2023-04-07T11:44:06;12.50;55.30
13115;DHT22;6623;52.120;8.660;2023-04-07T11:46:32;12.60;55.10
13115;DHT22;6623;52.120;8.660;2023-04-07T11:49:08;12.70;55.00
13115;DHT22;6623;52.120;8.660;2023-04-07T11:51:34;12.70;55.00
13115;DHT22;6623;52.120;8.660;2023-04-07T11:54:00;12.90;55.20
13115;DHT22;6623;52.120;8.660;2023-04-07T11:56:25;12.90;55.10
13115;DHT22;6623;52.120;8.660;2023-04-07T11:58:53;12.90;55.20
13115;DHT22;6623;52.120;8.660;2023-04-07T12:01:20;13.00;54.80
13115;DHT22;6623;52.120;8.660;2023-04-07T12:03:59;13.70;55.10
13115;DHT22;6623;52.120;8.660;2023-04-07T12:06:33;14.70;55.20
13115;DHT22;6623;52.120;8.660;2023-04-07T12:09:05;13.60;54.50
13115;DHT22;6623;52.120;8.660;2023-04-07T12:11:31;13.30;54.20
13115;DHT22;6623;52.120;8.660;2023-04-07T12:13:57;13.30;54.10
13115;DHT22;6623;52.120;8.660;2023-04-07T12:16:23;13.40;53.60
13115;DHT22;6623;52.120;8.660;2023-04-07T12:18:49;13.60;53.60
13115;DHT22;6623;52.120;8.660;2023-04-07T12:21:16;13.50;53.00
13115;DHT22;6623;52.120;8.660;2023-04-07T12:23:42;13.90;53.10
13115;DHT22;6623;52.120;8.660;2023-04-07T12:26:10;13.40;52.90
13115;DHT22;6623;52.120;8.660;2023-04-07T12:28:36;13.60;52.90
13115;DHT22;6623;52.120;8.660;2023-04-07T12:31:02;15.00;53.70
13115;DHT22;6623;52.120;8.660;2023-04-07T12:33:28;13.70;53.30
13115;DHT22;6623;52.120;8.660;2023-04-07T12:35:54;13.80;53.10
13115;DHT22;6623;52.120;8.660;2023-04-07T12:38:19;13.50;52.50
13115;DHT22;6623;52.120;8.660;2023-04-07T12:40:45;13.70;52.10
13115;DHT22;6623;52.120;8.660;2023-04-07T12:43:11;14.10;52.00
13115;DHT22;6623;52.120;8.660;2023-04-07T12:45:37;13.50;51.70
13115;DHT22;6623;52.120;8.660;2023-04-07T12:48:02;13.60;51.80
13115;DHT22;6623;52.120;8.660;2023-04-07T12:50:28;14.00;51.70
13115;DHT22;6623;52.120;8.660;2023-04-07T12:52:54;13.90;51.70
13115;DHT22;6623;52.120;8.660;2023-04-07T12:55:20;13.50;51.20
13115;DHT22;6623;52.120;8.660;2023-04-07T12:57:46;13.70;51.10
13115;DHT22;6623;52.120;8.660;2023-04-07T13:00:13;13.60;51.10
13115;DHT22;6623;52.120;8.660;2023-04-07T13:02:38;13.60;51.30
13115;DHT22;6623;52.120;8.660;2023-04-07T13:05:05;13.70;51.30
13115;DHT22;6623;52.120;8.660;2023-04-07T13:07:31;13.70;51.20
13115;DHT22;6623;52.120;8.660;2023-04-07T13:09:56;13.80;50.90
13115;DHT22;6623;52.120;8.660;2023-04-07T13:12:22;14.70;51.20
13115;DHT22;6623;52.120;8.660;2023-04-07T13:14:48;13.70;50.70
13115;DHT22;6623;52.120;8.660;2023-04-07T13:17:14;13.70;50.70
13115;DHT22;6623;52.120;8.660;2023-04-07T13:19:39;13.80;50.70
13115;DHT22;6623;52.120;8.660;2023-04-07T13:22:05;13.80;50.60
13115;DHT22;6623;52.120;8.660;2023-04-07T13:24:31;14.60;51.10
13115;DHT22;6623;52.120;8.660;2023-04-07T13:26:56;14.30;50.90
13115;DHT22;6623;52.120;8.660;2023-04-07T13:29:23;14.20;50.80
13115;DHT22;6623;52.120;8.660;2023-04-07T13:31:51;15.70;51.10
13115;DHT22;6623;52.120;8.660;2023-04-07T13:34:17;14.90;50.10
13115;DHT22;6623;52.120;8.660;2023-04-07T13:36:43;14.40;49.50
13115;DHT22;6623;52.120;8.660;2023-04-07T13:39:08;15.30;49.50
13115;DHT22;6623;52.120;8.660;2023-04-07T13:41:34;15.40;49.40
13115;DHT22;6623;52.120;8.660;2023-04-07T13:44:00;14.70;48.80
13115;DHT22;6623;52.120;8.660;2023-04-07T13:46:25;14.70;48.00
13115;DHT22;6623;52.120;8.660;2023-04-07T13:48:51;14.70;47.90
13115;DHT22;6623;52.120;8.660;2023-04-07T13:51:17;14.60;47.90
13115;DHT22;6623;52.120;8.660;2023-04-07T13:53:43;15.40;48.30
13115;DHT22;6623;52.120;8.660;2023-04-07T13:56:09;14.60;47.90
13115;DHT22;6623;52.120;8.660;2023-04-07T13:58:35;14.40;47.70
13115;DHT22;6623;52.120;8.660;2023-04-07T14:01:01;14.60;47.50
13115;DHT22;6623;52.120;8.660;2023-04-07T14:03:27;14.30;47.00
13115;DHT22;6623;52.120;8.660;2023-04-07T14:05:53;14.40;46.60
13115;DHT22;6623;52.120;8.660;2023-04-07T14:08:20;14.90;46.70
13115;DHT22;6623;52.120;8.660;2023-04-07T14:10:48;14.00;46.10
13115;DHT22;6623;52.120;8.660;2023-04-07T14:13:13;14.20;46.30
13115;DHT22;6623;52.120;8.660;2023-04-07T14:15:39;13.90;45.80
13115;DHT22;6623;52.120;8.660;2023-04-07T14:18:04;14.10;45.80
13115;DHT22;6623;52.120;8.660;2023-04-07T14:20:31;14.80;46.10
13115;DHT22;6623;52.120;8.660;2023-04-07T14:22:57;14.10;45.60
13115;DHT22;6623;52.120;8.660;2023-04-07T14:25:23;14.10;45.50
13115;DHT22;6623;52.120;8.660;2023-04-07T14:27:48;14.20;45.60
13115;DHT22;6623;52.120;8.660;2023-04-07T14:30:14;13.80;45.60
13115;DHT22;6623;52.120;8.660;2023-04-07T14:32:39;14.10;45.70
13115;DHT22;6623;52.120;8.660;2023-04-07T14:35:05;14.30;45.40
13115;DHT22;6623;52.120;8.660;2023-04-07T14:37:31;14.20;45.30
13115;DHT22;6623;52.120;8.660;2023-04-07T14:39:56;14.20;45.20
13115;DHT22;6623;52.120;8.660;2023-04-07T14:42:22;14.50;45.50
13115;DHT22;6623;52.120;8.660;2023-04-07T14:44:48;14.20;45.00
13115;DHT22;6623;52.120;8.660;2023-04-07T14:47:14;14.30;44.60
13115;DHT22;6623;52.120;8.660;2023-04-07T14:49:40;14.30;44.50
13115;DHT22;6623;52.120;8.660;2023-04-07T14:52:05;14.20;44.80
13115;DHT22;6623;52.120;8.660;2023-04-07T14:54:31;14.10;44.80
13115;DHT22;6623;52.120;8.660;2023-04-07T14:56:57;15.50;45.40
13115;DHT22;6623;52.120;8.660;2023-04-07T14:59:22;14.20;44.80
13115;DHT22;6623;52.120;8.660;2023-04-07T15:01:48;14.60;45.20
13115;DHT22;6623;52.120;8.660;2023-04-07T15:04:13;14.20;45.00
13115;DHT22;6623;52.120;8.660;2023-04-07T15:06:42;15.80;45.70
13115;DHT22;6623;52.120;8.660;2023-04-07T15:09:08;14.10;44.50
13115;DHT22;6623;52.120;8.660;2023-04-07T15:11:33;14.10;43.90
13115;DHT22;6623;52.120;8.660;2023-04-07T15:13:59;14.50;44.30
13115;DHT22;6623;52.120;8.660;2023-04-07T15:16:25;13.80;44.10
13115;DHT22;6623;52.120;8.660;2023-04-07T15:18:51;13.90;44.20
13115;DHT22;6623;52.120;8.660;2023-04-07T15:21:17;14.50;44.60
13115;DHT22;6623;52.120;8.660;2023-04-07T15:23:43;13.70;44.10
13115;DHT22;6623;52.120;8.660;2023-04-07T15:26:10;13.50;43.90
13115;DHT22;6623;52.120;8.660;2023-04-07T15:28:35;13.60;44.20
13115;DHT22;6623;52.120;8.660;2023-04-07T15:31:01;14.10;44.20
13115;DHT22;6623;52.120;8.660;2023-04-07T15:33:27;13.50;44.10
13115;DHT22;6623;52.120;8.660;2023-04-07T15:35:52;13.70;44.30
13115;DHT22;6623;52.120;8.660;2023-04-07T15:38:18;13.30;43.80
13115;DHT22;6623;52.120;8.660;2023-04-07T15:40:43;14.30;44.40
13115;DHT22;6623;52.120;8.660;2023-04-07T15:43:09;13.70;43.90
13115;DHT22;6623;52.120;8.660;2023-04-07T15:45:42;13.50;44.00
13115;DHT22;6623;52.120;8.660;2023-04-07T15:48:09;13.50;44.10
13115;DHT22;6623;52.120;8.660;2023-04-07T15:50:35;13.30;43.90
13115;DHT22;6623;52.120;8.660;2023-04-07T15:53:01;13.30;44.00
13115;DHT22;6623;52.120;8.660;2023-04-07T15:55:29;13.90;44.20
13115;DHT22;6623;52.120;8.660;2023-04-07T15:57:55;13.40;44.10
13115;DHT22;6623;52.120;8.660;2023-04-07T16:00:20;13.20;44.20
13115;DHT22;6623;52.120;8.660;2023-04-07T16:02:46;13.40;44.20
13115;DHT22;6623;52.120;8.660;2023-04-07T16:05:12;14.30;44.70
13115;DHT22;6623;52.120;8.660;2023-04-07T16:07:38;13.20;44.10
13115;DHT22;6623;52.120;8.660;2023-04-07T16:10:03;15.10;45.20